createdAt,value
2018-09-01T00:02:15.166Z,11.20
2018-09-01T00:04:43.985Z,11.20
2018-09-01T00:07:12.717Z,11.10
2018-09-01T00:09:41.464Z,11.10
2018-09-01T00:12:10.196Z,11.10
2018-09-01T00:14:38.789Z,11.10
2018-09-01T00:17:07.544Z,11.10
2018-09-01T00:19:36.191Z,11.00
2018-09-01T00:22:04.876Z,11.00
2018-09-01T00:24:33.618Z,11.00
2018-09-01T00:27:02.225Z,11.00
2018-09-01T00:29:30.960Z,11.00
2018-09-01T00:31:59.709Z,11.00
2018-09-01T00:34:28.529Z,10.90
2018-09-01T00:36:58.364Z,11.00
2018-09-01T00:39:27.199Z,10.90
2018-09-01T00:41:55.820Z,10.90
2018-09-01T00:44:24.620Z,10.90
2018-09-01T00:46:53.535Z,10.80
2018-09-01T00:49:21.888Z,10.80
2018-09-01T00:51:50.601Z,10.80
2018-09-01T00:54:19.301Z,10.80
2018-09-01T00:56:47.924Z,10.80
2018-09-01T00:59:16.654Z,10.80
2018-09-01T01:01:45.416Z,10.70
2018-09-01T01:04:14.152Z,10.80
2018-09-01T01:06:44.226Z,10.70
2018-09-01T01:09:12.568Z,10.70
2018-09-01T01:11:41.100Z,10.70
2018-09-01T01:14:09.816Z,10.70
2018-09-01T01:16:38.536Z,10.70
2018-09-01T01:19:08.352Z,10.70
2018-09-01T01:21:37.028Z,10.70
2018-09-01T01:24:06.171Z,10.60
2018-09-01T01:26:34.557Z,10.60
2018-09-01T01:29:03.616Z,10.60
2018-09-01T01:31:32.267Z,10.60
2018-09-01T01:34:01.192Z,10.60
2018-09-01T01:36:29.855Z,10.60
2018-09-01T01:38:58.595Z,10.60
2018-09-01T01:41:27.203Z,10.60
2018-09-01T01:50:55.248Z,10.50
2018-09-01T01:53:24.047Z,10.40
2018-09-01T01:55:52.301Z,10.40
2018-09-01T01:58:20.845Z,10.40
2018-09-01T02:00:49.445Z,10.40
2018-09-01T02:03:18.049Z,10.40
2018-09-01T02:05:46.953Z,10.30
2018-09-01T02:08:15.456Z,10.40
2018-09-01T02:10:44.147Z,10.30
2018-09-01T02:13:13.292Z,10.40
2018-09-01T02:15:41.681Z,10.30
2018-09-01T02:18:10.574Z,10.30
2018-09-01T02:20:39.096Z,10.30
2018-09-01T02:23:07.805Z,10.30
2018-09-01T02:25:36.856Z,10.30
2018-09-01T02:28:05.444Z,10.40
2018-09-01T02:30:34.199Z,10.30
2018-09-01T02:33:03.032Z,10.30
2018-09-01T02:35:31.584Z,10.30
2018-09-01T02:38:00.289Z,10.30
2018-09-01T02:40:29.264Z,10.30
2018-09-01T02:42:57.778Z,10.30
2018-09-01T02:45:26.476Z,10.30
2018-09-01T02:47:55.200Z,10.20
2018-09-01T02:50:23.909Z,10.20
2018-09-01T02:52:52.793Z,10.20
2018-09-01T02:55:21.122Z,10.20
2018-09-01T02:57:49.844Z,10.20
2018-09-01T03:00:23.889Z,10.20
2018-09-01T03:02:52.218Z,10.10
2018-09-01T03:05:20.931Z,10.10
2018-09-01T03:07:49.504Z,10.10
2018-09-01T03:10:18.232Z,10.10
2018-09-01T03:12:46.968Z,10.10
2018-09-01T03:15:15.645Z,10.10
2018-09-01T03:17:44.302Z,10.10
2018-09-01T03:20:12.903Z,10.10
2018-09-01T03:22:42.801Z,10.10
2018-09-01T03:25:11.205Z,10.10
2018-09-01T03:27:39.853Z,10.00
2018-09-01T03:30:08.560Z,10.10
2018-09-01T03:32:37.388Z,10.00
2018-09-01T03:35:06.045Z,10.00
2018-09-01T03:37:34.664Z,10.00
2018-09-01T03:40:03.203Z,10.00
2018-09-01T03:42:31.815Z,10.00
2018-09-01T03:45:00.610Z,10.00
2018-09-01T03:47:29.192Z,10.00
2018-09-01T03:49:57.788Z,10.00
2018-09-01T03:52:26.399Z,10.00
2018-09-01T03:54:55.113Z,10.00
2018-09-01T03:57:23.724Z,9.90
2018-09-01T03:59:52.325Z,9.90
2018-09-01T04:02:21.025Z,9.90
2018-09-01T04:04:49.749Z,9.90
2018-09-01T04:07:18.460Z,9.90
2018-09-01T04:09:47.091Z,9.80
2018-09-01T04:12:15.829Z,9.80
2018-09-01T04:14:44.832Z,9.70
2018-09-01T04:17:13.456Z,9.70
2018-09-01T04:19:42.308Z,9.70
2018-09-01T04:22:10.748Z,9.70
2018-09-01T04:24:40.377Z,9.70
2018-09-01T04:27:09.506Z,9.60
2018-09-01T04:29:37.920Z,9.60
2018-09-01T04:32:06.789Z,9.60
2018-09-01T04:34:35.483Z,9.60
2018-09-01T04:37:04.238Z,9.60
2018-09-01T04:39:35.925Z,9.60
2018-09-01T04:42:04.987Z,9.60
2018-09-01T04:44:33.509Z,9.60
2018-09-01T04:47:02.548Z,9.50
2018-09-01T04:49:31.275Z,9.50
2018-09-01T04:51:59.772Z,9.60
2018-09-01T04:54:28.488Z,9.50
2018-09-01T04:56:57.460Z,9.60
2018-09-01T04:59:25.851Z,9.50
2018-09-01T05:01:54.756Z,9.50
2018-09-01T05:04:23.376Z,9.50
2018-09-01T05:06:51.992Z,9.60
2018-09-01T05:09:20.938Z,9.60
2018-09-01T05:11:49.544Z,9.60
2018-09-01T05:14:18.565Z,9.60
2018-09-01T05:16:47.211Z,9.60
2018-09-01T05:19:15.821Z,9.60
2018-09-01T05:21:44.460Z,9.60
2018-09-01T05:24:12.988Z,9.60
2018-09-01T05:26:41.552Z,9.60
2018-09-01T05:29:10.264Z,9.60
2018-09-01T05:31:38.912Z,9.60
2018-09-01T05:34:07.611Z,9.70
2018-09-01T05:36:36.627Z,9.70
2018-09-01T05:39:08.180Z,9.70
2018-09-01T05:41:37.372Z,9.80
2018-09-01T05:44:06.453Z,9.80
2018-09-01T05:46:35.254Z,9.90
2018-09-01T05:49:04.156Z,9.90
2018-09-01T05:51:33.256Z,10.00
2018-09-01T05:54:02.091Z,10.10
2018-09-01T05:56:30.504Z,10.10
2018-09-01T05:58:59.632Z,10.20
2018-09-01T06:01:28.300Z,10.30
2018-09-01T06:03:56.636Z,10.30
2018-09-01T06:06:26.363Z,10.40
2018-09-01T06:08:54.867Z,10.50
2018-09-01T06:11:26.656Z,10.50
2018-09-01T06:13:55.292Z,10.50
2018-09-01T06:16:23.968Z,10.60
2018-09-01T06:20:22.022Z,10.70
2018-09-01T06:22:50.943Z,10.80
2018-09-01T06:25:19.586Z,10.90
2018-09-01T06:27:50.356Z,11.10
2018-09-01T06:30:22.484Z,11.30
2018-09-01T06:32:52.119Z,11.50
2018-09-01T06:35:20.560Z,11.60
2018-09-01T06:37:49.136Z,11.70
2018-09-01T06:40:17.977Z,11.80
2018-09-01T06:42:46.555Z,12.00
2018-09-01T06:45:15.229Z,12.20
2018-09-01T06:47:43.978Z,12.30
2018-09-01T06:50:12.600Z,12.50
2018-09-01T06:52:41.272Z,12.70
2018-09-01T06:55:10.091Z,12.80
2018-09-01T06:57:38.808Z,13.00
2018-09-01T07:00:07.416Z,13.20
2018-09-01T07:02:36.160Z,13.30
2018-09-01T07:05:05.052Z,13.50
2018-09-01T07:07:34.093Z,13.70
2018-09-01T07:10:02.521Z,13.90
2018-09-01T07:12:31.432Z,14.10
2018-09-01T07:15:00.059Z,14.20
2018-09-01T07:17:28.784Z,14.40
2018-09-01T07:19:57.676Z,14.60
2018-09-01T07:22:26.096Z,14.80
2018-09-01T07:24:54.702Z,15.10
2018-09-01T07:27:23.469Z,15.20
2018-09-01T07:29:52.220Z,15.40
2018-09-01T07:32:21.166Z,15.50
2018-09-01T07:34:49.685Z,15.70
2018-09-01T07:37:18.346Z,15.90
2018-09-01T07:39:46.989Z,16.20
2018-09-01T07:42:15.944Z,16.30
2018-09-01T07:44:44.376Z,16.30
2018-09-01T07:47:12.892Z,16.60
2018-09-01T07:49:41.928Z,16.80
2018-09-01T07:52:10.157Z,16.70
2018-09-01T07:54:39.187Z,16.70
2018-09-01T07:57:07.780Z,16.90
2018-09-01T07:59:36.832Z,17.00
2018-09-01T08:02:05.325Z,17.20
2018-09-01T08:04:33.999Z,17.30
2018-09-01T08:07:02.728Z,17.40
2018-09-01T08:09:32.014Z,17.50
2018-09-01T08:12:00.517Z,17.60
2018-09-01T08:14:29.282Z,17.80
2018-09-01T08:16:58.285Z,18.00
2018-09-01T08:19:26.621Z,18.20
2018-09-01T08:21:55.344Z,18.40
2018-09-01T08:24:24.106Z,18.50
2018-09-01T08:26:52.951Z,18.50
2018-09-01T08:29:21.580Z,18.60
2018-09-01T08:31:50.301Z,18.80
2018-09-01T08:34:19.193Z,18.90
2018-09-01T08:36:47.920Z,19.10
2018-09-01T08:39:16.528Z,19.20
2018-09-01T08:41:45.372Z,19.50
2018-09-01T08:45:38.582Z,19.70
2018-09-01T08:48:07.184Z,19.80
2018-09-01T08:50:35.922Z,20.10
2018-09-01T08:53:04.960Z,20.30
2018-09-01T08:55:33.408Z,20.30
2018-09-01T08:58:02.320Z,20.30
2018-09-01T09:00:30.920Z,20.40
2018-09-01T09:02:59.668Z,20.60
2018-09-01T09:05:28.661Z,20.80
2018-09-01T09:07:57.047Z,20.90
2018-09-01T09:10:26.793Z,21.00
2018-09-01T09:12:55.350Z,21.00
2018-09-01T09:15:24.231Z,21.30
2018-09-01T09:17:53.130Z,21.40
2018-09-01T09:20:21.713Z,21.50
2018-09-01T09:22:50.548Z,21.60
2018-09-01T09:25:19.652Z,21.70
2018-09-01T09:27:48.175Z,21.80
2018-09-01T09:30:16.898Z,21.70
2018-09-01T09:32:45.831Z,21.70
2018-09-01T09:35:14.292Z,21.70
2018-09-01T09:37:43.300Z,21.90
2018-09-01T09:40:12.245Z,21.70
2018-09-01T09:42:40.762Z,21.70
2018-09-01T09:45:10.890Z,21.60
2018-09-01T09:47:39.320Z,21.70
2018-09-01T09:50:08.109Z,21.60
2018-09-01T09:52:37.127Z,21.80
2018-09-01T09:55:05.676Z,22.10
2018-09-01T09:57:34.201Z,22.30
2018-09-01T10:00:03.055Z,22.60
2018-09-01T10:02:31.556Z,22.90
2018-09-01T10:05:00.320Z,23.00
2018-09-01T10:07:29.158Z,23.30
2018-09-01T10:09:58.105Z,23.50
2018-09-01T10:12:26.855Z,23.50
2018-09-01T10:14:55.540Z,23.60
2018-09-01T10:17:24.206Z,23.80
2018-09-01T10:19:52.717Z,24.20
2018-09-01T10:22:21.855Z,24.60
2018-09-01T10:24:50.288Z,25.00
2018-09-01T10:27:19.000Z,25.40
2018-09-01T10:31:12.187Z,25.20
2018-09-01T10:33:40.876Z,25.20
2018-09-01T10:36:09.525Z,25.40
2018-09-01T10:38:38.352Z,25.40
2018-09-01T10:41:07.436Z,25.60
2018-09-01T10:43:36.160Z,25.60
2018-09-01T10:46:05.400Z,25.80
2018-09-01T10:48:33.812Z,26.00
2018-09-01T10:51:02.843Z,26.20
2018-09-01T10:53:31.180Z,26.40
2018-09-01T10:55:59.752Z,26.70
2018-09-01T10:58:28.369Z,26.80
2018-09-01T11:00:57.335Z,26.90
2018-09-01T11:03:25.748Z,26.80
2018-09-01T11:05:54.559Z,26.80
2018-09-01T11:08:24.716Z,26.70
2018-09-01T11:10:54.133Z,26.60
2018-09-01T11:13:22.944Z,26.90
2018-09-01T11:15:51.712Z,27.10
2018-09-01T11:18:20.257Z,27.40
2018-09-01T11:20:49.117Z,27.40
2018-09-01T11:23:18.100Z,27.50
2018-09-01T11:25:46.825Z,27.60
2018-09-01T11:28:15.554Z,28.00
2018-09-01T11:30:44.204Z,28.00
2018-09-01T11:33:13.217Z,27.70
2018-09-01T11:35:41.948Z,27.40
2018-09-01T11:38:10.495Z,27.10
2018-09-01T11:40:39.106Z,26.80
2018-09-01T11:43:08.112Z,26.50
2018-09-01T11:45:36.632Z,26.30
2018-09-01T11:48:05.647Z,26.10
2018-09-01T11:50:34.409Z,25.90
2018-09-01T11:53:03.590Z,25.70
2018-09-01T11:55:32.373Z,25.10
2018-09-01T11:58:01.090Z,25.00
2018-09-01T12:00:29.824Z,25.20
2018-09-01T12:02:58.350Z,25.60
2018-09-01T12:05:27.336Z,26.10
2018-09-01T12:07:57.068Z,26.70
2018-09-01T12:10:25.380Z,26.90
2018-09-01T12:12:54.091Z,27.00
2018-09-01T12:15:22.842Z,27.10
2018-09-01T12:17:51.844Z,27.10
2018-09-01T12:20:20.420Z,27.00
2018-09-01T12:22:49.136Z,26.90
2018-09-01T12:25:17.767Z,26.20
2018-09-01T12:27:46.597Z,26.20
2018-09-01T12:30:15.487Z,26.40
2018-09-01T12:32:43.925Z,26.50
2018-09-01T12:35:12.581Z,26.40
2018-09-01T12:37:41.321Z,26.20
2018-09-01T12:40:10.192Z,26.20
2018-09-01T12:42:38.689Z,26.30
2018-09-01T12:45:08.471Z,26.50
2018-09-01T12:47:37.161Z,26.70
2018-09-01T12:50:06.095Z,27.00
2018-09-01T12:52:34.824Z,27.10
2018-09-01T12:55:03.623Z,27.00
2018-09-01T12:57:32.773Z,26.80
2018-09-01T13:00:01.404Z,27.10
2018-09-01T13:02:30.859Z,27.30
2018-09-01T13:04:59.668Z,27.60
2018-09-01T13:07:28.621Z,27.70
2018-09-01T13:09:56.973Z,28.00
2018-09-01T13:12:26.154Z,28.30
2018-09-01T13:14:54.760Z,28.50
2018-09-01T13:17:23.573Z,28.50
2018-09-01T13:19:52.190Z,27.80
2018-09-01T13:22:20.944Z,27.20
2018-09-01T13:24:49.537Z,26.90
2018-09-01T13:27:18.248Z,26.60
2018-09-01T13:29:47.244Z,26.40
2018-09-01T13:32:15.547Z,26.00
2018-09-01T13:34:44.064Z,25.80
2018-09-01T13:37:12.698Z,25.40
2018-09-01T13:39:41.397Z,25.40
2018-09-01T13:42:10.116Z,25.40
2018-09-01T13:44:38.875Z,25.60
2018-09-01T13:47:07.258Z,25.60
2018-09-01T13:49:35.850Z,25.50
2018-09-01T13:52:05.034Z,25.80
2018-09-01T13:54:33.410Z,25.70
2018-09-01T13:57:02.204Z,25.30
2018-09-01T13:59:30.849Z,25.10
2018-09-01T14:01:59.464Z,25.00
2018-09-01T14:04:28.340Z,24.80
2018-09-01T14:06:57.055Z,24.70
2018-09-01T14:09:25.868Z,24.40
2018-09-01T14:11:54.697Z,24.30
2018-09-01T14:14:23.787Z,24.10
2018-09-01T14:16:53.029Z,24.10
2018-09-01T14:19:22.129Z,24.00
2018-09-01T14:21:50.848Z,23.90
2018-09-01T14:24:19.748Z,24.00
2018-09-01T14:26:48.448Z,23.80
2018-09-01T14:29:17.069Z,23.80
2018-09-01T14:31:45.791Z,23.70
2018-09-01T14:34:14.506Z,23.60
2018-09-01T14:36:43.048Z,23.50
2018-09-01T14:39:12.285Z,23.40
2018-09-01T14:41:40.512Z,23.20
2018-09-01T14:44:09.342Z,23.00
2018-09-01T14:46:37.886Z,22.80
2018-09-01T14:49:06.624Z,22.70
2018-09-01T14:51:35.347Z,22.70
2018-09-01T14:54:04.162Z,22.60
2018-09-01T14:56:33.012Z,22.50
2018-09-01T14:59:01.748Z,22.40
2018-09-01T15:01:30.482Z,22.30
2018-09-01T15:03:59.047Z,22.10
2018-09-01T15:06:29.189Z,22.10
2018-09-01T15:08:59.424Z,22.00
2018-09-01T15:11:28.204Z,22.10
2018-09-01T15:13:57.106Z,22.40
2018-09-01T15:16:26.764Z,22.70
2018-09-01T15:18:56.591Z,22.90
2018-09-01T15:21:25.316Z,23.20
2018-09-01T15:23:54.120Z,23.70
2018-09-01T15:26:23.998Z,24.20
2018-09-01T15:28:52.832Z,24.40
2018-09-01T15:31:21.753Z,24.60
2018-09-01T15:33:51.356Z,24.80
2018-09-01T15:36:21.087Z,24.70
2018-09-01T15:38:49.609Z,24.50
2018-09-01T15:41:18.504Z,24.50
2018-09-01T15:43:47.228Z,24.70
2018-09-01T15:46:15.848Z,24.80
2018-09-01T15:48:44.604Z,25.00
2018-09-01T15:51:13.135Z,25.10
2018-09-01T15:53:41.880Z,25.20
2018-09-01T15:56:10.533Z,25.20
2018-09-01T15:58:39.132Z,25.20
2018-09-01T16:01:07.996Z,25.30
2018-09-01T16:03:36.747Z,25.30
2018-09-01T16:06:05.596Z,25.20
2018-09-01T16:08:34.460Z,25.30
2018-09-01T16:11:03.186Z,25.20
2018-09-01T16:13:31.967Z,25.10
2018-09-01T16:16:00.473Z,25.10
2018-09-01T16:18:29.404Z,24.90
2018-09-01T16:20:58.022Z,24.90
2018-09-01T16:23:26.697Z,24.80
2018-09-01T16:25:55.780Z,24.70
2018-09-01T16:28:24.328Z,24.70
2018-09-01T16:30:54.034Z,24.70
2018-09-01T16:33:23.011Z,24.70
2018-09-01T16:35:51.565Z,24.60
2018-09-01T16:38:21.740Z,24.50
2018-09-01T16:40:51.184Z,24.40
2018-09-01T16:43:20.052Z,24.40
2018-09-01T16:45:48.453Z,24.30
2018-09-01T16:48:17.164Z,24.20
2018-09-01T16:50:45.779Z,24.10
2018-09-01T16:53:15.314Z,24.00
2018-09-01T16:55:44.983Z,23.80
2018-09-01T16:58:13.717Z,23.70
2018-09-01T17:00:42.552Z,23.60
2018-09-01T17:03:11.301Z,23.40
2018-09-01T17:05:40.078Z,23.20
2018-09-01T17:08:09.040Z,22.90
2018-09-01T17:10:37.606Z,22.80
2018-09-01T17:13:06.471Z,22.60
2018-09-01T17:15:35.283Z,22.30
2018-09-01T17:18:05.335Z,22.20
2018-09-01T17:20:34.125Z,21.90
2018-09-01T17:23:02.536Z,21.70
2018-09-01T17:25:31.949Z,21.60
2018-09-01T17:28:01.164Z,21.40
2018-09-01T17:30:29.662Z,21.20
2018-09-01T17:32:58.185Z,21.10
2018-09-01T17:35:26.727Z,20.90
2018-09-01T17:37:55.484Z,20.80
2018-09-01T17:40:24.426Z,20.60
2018-09-01T17:42:53.231Z,20.50
2018-09-01T17:45:22.032Z,20.40
2018-09-01T17:47:51.452Z,20.20
2018-09-01T17:50:19.660Z,20.10
2018-09-01T17:52:48.493Z,20.00
2018-09-01T17:55:17.237Z,19.80
2018-09-01T17:57:45.953Z,19.70
2018-09-01T18:00:14.569Z,19.60
2018-09-01T18:02:43.426Z,19.40
2018-09-01T18:05:12.135Z,19.40
2018-09-01T18:07:41.150Z,19.20
2018-09-01T18:10:09.689Z,19.10
2018-09-01T18:12:39.328Z,19.00
2018-09-01T18:15:08.145Z,18.90
2018-09-01T18:17:36.821Z,18.80
2018-09-01T18:20:05.665Z,18.70
2018-09-01T18:22:34.734Z,18.60
2018-09-01T18:25:03.619Z,18.50
2018-09-01T18:27:32.091Z,18.40
2018-09-01T18:30:00.858Z,18.30
2018-09-01T18:32:30.857Z,18.20
2018-09-01T18:34:59.289Z,18.10
2018-09-01T18:37:27.564Z,18.00
2018-09-01T18:39:56.284Z,17.90
2018-09-01T18:42:24.967Z,17.80
2018-09-01T18:44:53.784Z,17.70
2018-09-01T18:47:22.461Z,17.60
2018-09-01T18:49:51.529Z,17.50
2018-09-01T18:52:19.845Z,17.50
2018-09-01T18:54:48.720Z,17.30
2018-09-01T18:57:16.999Z,17.30
2018-09-01T18:59:45.834Z,17.20
2018-09-01T19:02:14.776Z,17.20
2018-09-01T19:04:43.147Z,17.10
2018-09-01T19:07:12.116Z,16.90
2018-09-01T19:09:40.920Z,16.80
2018-09-01T19:12:09.384Z,16.80
2018-09-01T19:14:37.955Z,16.70
2018-09-01T19:17:06.559Z,16.60
2018-09-01T19:19:35.294Z,16.50
2018-09-01T19:22:04.229Z,16.40
2018-09-01T19:24:34.199Z,16.30
2018-09-01T19:27:02.584Z,16.30
2018-09-01T19:29:31.038Z,16.20
2018-09-01T19:32:00.214Z,16.20
2018-09-01T19:34:28.852Z,16.10
2018-09-01T19:36:57.604Z,16.00
2018-09-01T19:39:26.319Z,15.90
2018-09-01T19:41:54.922Z,15.90
2018-09-01T19:44:23.749Z,15.80
2018-09-01T19:46:52.464Z,15.70
2018-09-01T19:49:21.265Z,15.70
2018-09-01T19:51:49.835Z,15.60
2018-09-01T19:54:18.267Z,15.60
2018-09-01T19:56:47.034Z,15.50
2018-09-01T19:59:15.584Z,15.40
2018-09-01T20:01:45.620Z,15.40
2018-09-01T20:04:14.053Z,15.30
2018-09-01T20:06:42.620Z,15.30
2018-09-01T20:09:11.644Z,15.20
2018-09-01T20:11:40.341Z,15.20
2018-09-01T20:14:09.309Z,15.10
2018-09-01T20:16:38.045Z,15.10
2018-09-01T20:19:06.732Z,15.10
2018-09-01T20:21:35.474Z,15.00
2018-09-01T20:24:04.833Z,15.00
2018-09-01T20:26:33.893Z,15.00
2018-09-01T20:29:02.514Z,14.90
2018-09-01T20:31:31.450Z,14.90
2018-09-01T20:33:59.997Z,14.80
2018-09-01T20:36:28.625Z,14.80
2018-09-01T20:38:57.225Z,14.70
2018-09-01T20:41:25.877Z,14.70
2018-09-01T20:43:54.388Z,14.60
2018-09-01T20:46:23.048Z,14.60
2018-09-01T20:48:52.005Z,14.60
2018-09-01T20:51:20.542Z,14.50
2018-09-01T20:53:50.612Z,14.50
2018-09-01T20:56:18.836Z,14.40
2018-09-01T20:58:47.637Z,14.40
2018-09-01T21:01:16.328Z,14.40
2018-09-01T21:03:44.572Z,14.30
2018-09-01T21:06:13.268Z,14.30
2018-09-01T21:08:42.082Z,14.30
2018-09-01T21:11:10.840Z,14.20
2018-09-01T21:13:39.548Z,14.20
2018-09-01T21:16:08.087Z,14.20
2018-09-01T21:18:36.801Z,14.20
2018-09-01T21:21:05.880Z,14.10
2018-09-01T21:23:34.508Z,14.10
2018-09-01T21:26:02.910Z,14.10
2018-09-01T21:28:32.741Z,14.10
2018-09-01T21:31:01.172Z,14.10
2018-09-01T21:33:29.820Z,14.10
2018-09-01T21:35:58.536Z,14.00
2018-09-01T21:38:27.239Z,14.00
2018-09-01T21:40:56.075Z,14.00
2018-09-01T21:43:24.725Z,14.00
2018-09-01T21:45:53.641Z,13.90
2018-09-01T21:48:22.344Z,13.90
2018-09-01T21:50:51.023Z,13.90
2018-09-01T21:53:19.721Z,13.90
2018-09-01T21:55:48.684Z,13.90
2018-09-01T21:58:17.200Z,13.90
2018-09-01T22:00:51.707Z,13.80
2018-09-01T22:03:21.837Z,13.80
2018-09-01T22:05:50.624Z,13.80
2018-09-01T22:08:19.528Z,13.80
2018-09-01T22:10:48.045Z,13.80
2018-09-01T22:13:16.653Z,13.70
2018-09-01T22:15:45.337Z,13.70
2018-09-01T22:18:13.957Z,13.70
2018-09-01T22:20:42.960Z,13.70
2018-09-01T22:23:11.493Z,13.70
2018-09-01T22:25:40.097Z,13.70
2018-09-01T22:28:09.091Z,13.60
2018-09-01T22:30:37.735Z,13.60
2018-09-01T22:33:06.429Z,13.60
2018-09-01T22:35:35.146Z,13.60
2018-09-01T22:38:03.847Z,13.50
2018-09-01T22:40:32.536Z,13.50
2018-09-01T22:43:01.455Z,13.50
2018-09-01T22:45:30.375Z,13.50
2018-09-01T22:47:59.036Z,13.50
2018-09-01T22:50:27.972Z,13.40
2018-09-01T22:52:56.665Z,13.40
2018-09-01T22:55:25.172Z,13.40
2018-09-01T22:57:53.952Z,13.40
2018-09-01T23:00:22.532Z,13.40
2018-09-01T23:02:51.572Z,13.30
2018-09-01T23:05:19.888Z,13.30
2018-09-01T23:07:48.486Z,13.30
2018-09-01T23:10:17.004Z,13.20
2018-09-01T23:12:45.685Z,13.20
2018-09-01T23:15:14.544Z,13.20
2018-09-01T23:17:43.227Z,13.10
2018-09-01T23:20:11.836Z,13.10
2018-09-01T23:22:40.357Z,13.00
2018-09-01T23:25:09.152Z,13.00
2018-09-01T23:27:37.969Z,12.90
2018-09-01T23:30:06.793Z,12.90
2018-09-01T23:32:35.288Z,12.80
2018-09-01T23:35:03.930Z,12.80
2018-09-01T23:37:32.584Z,12.70
2018-09-01T23:40:01.580Z,12.70
2018-09-01T23:42:30.140Z,12.70
2018-09-01T23:44:58.665Z,12.70
2018-09-01T23:47:27.352Z,12.60
2018-09-01T23:49:56.305Z,12.60
2018-09-01T23:52:24.820Z,12.50
2018-09-01T23:54:53.686Z,12.50
2018-09-01T23:57:22.944Z,12.50
2018-09-01T23:59:52.027Z,12.50
